Patillas, PR (00723)

9:44 AM AST on July 26, 2016 (GMT -0400)
tikolj | | Change Station

Elev 30 ft 17.97 °N, 66.06 °W | Updated 8 seconds ago

Scattered Clouds
Scattered Clouds
87.4 °F
Feels Like 108 °F
N
4.7
Wind Variable Wind from ENE

Today
High -- | Low -- °F
--% Chance of Precip.
Yesterday
High -- | Low -- °F
Precip. -- in
Pressure 30.03 in
Visibility 10.0 miles
Clouds Scattered Clouds 2000 ft
Heat Index 108 °F
Dew Point 83 °F
Humidity 86%
Rainfall 0.19 in
Snow Depth Not available.
6:00 AM 7:00 PM
Waning Gibbous, 54% visible
SPECI TJNR 261335Z AUTO 10009KT 10SM SCT020 29/26 A3003 RMK AO2 T02890261
Pressure 30.03 in
Visibility 10.0 miles
Clouds Scattered Clouds 2000 ft
Heat Index 108 °F
Dew Point 83 °F
Humidity 86%
Rainfall 0.19 in
Snow Depth Not available.
6:00 AM 7:00 PM
Waning Gibbous, 54% visible
SPECI TJNR 261335Z AUTO 10009KT 10SM SCT020 29/26 A3003 RMK AO2 T02890261

10-Day Weather Forecast

Almanac

Astronomy

Jul. 26, 2016 Rise Set
Actual Time
Civil Twilight
Nautical Twilight
Astronomical Twilight
Moon
Length of Visible Light
Length of Day
Tomorrow will be .
, % of the Moon is Illuminated

Today's Extremes

State Highs State Lows

Community

WunderPhotos

Upload Photos

1,927,587 photos uploaded!

WunderBlog® & News

Nearby

Air Quality

  Air Quality AQ Index Pollutant
Not available.

Snow Depth

Station Depth Elevation

Earthquake Activity

City Distance Mag. Time & Date
Minimum magnitude displayed is 2.5.

Coastal Water Temperatures

Place Temperature

Stations

Nearby Weather Stations

Station Location Temp. Windchill Dew Point Humidity Wind Precip. Elev Updated Type
                   

Watches & Warnings

There are currently no watches in effect.